Time;durP1;ratioP1;P1;durP2;ratioP2;P2;SDS_P1;SDS_P2;PMS_P1;PMS_P2;Temp;Humidity;BMP_temperature;BMP_pressure;BME280_temperature;BME280_humidity;BME280_pressure;Samples;Min_cycle;Max_cycle;Signal;HPM_P1;HPM_P2
2024/01/23 00:01:43;;;;;;;19.33;9.88;;;;;;;-1.19;100.00;99163.78;5098189;28;20044;-62
2024/01/23 00:04:08;;;;;;;11.10;6.65;;;;;;;-1.39;100.00;99172.09;5097957;28;20056;-60
2024/01/23 00:06:34;;;;;;;15.82;7.65;;;;;;;-1.31;100.00;99174.13;5098113;28;20474;-60
2024/01/23 00:09:00;;;;;;;19.33;9.48;;;;;;;-1.16;100.00;99160.53;5098404;28;20093;-59
2024/01/23 00:11:26;;;;;;;18.63;9.05;;;;;;;-1.34;100.00;99178.19;5098201;28;20150;-56
2024/01/23 00:13:53;;;;;;;18.75;8.40;;;;;;;-1.09;100.00;99174.41;5098413;28;20356;-57
2024/01/23 00:16:19;;;;;;;20.15;10.75;;;;;;;-1.22;100.00;99186.66;5098071;28;20138;-59
2024/01/23 00:18:45;;;;;;;18.05;10.43;;;;;;;-1.23;100.00;99187.75;5098354;28;20113;-61
2024/01/23 00:21:11;;;;;;;20.42;9.43;;;;;;;-1.21;100.00;99198.22;5097820;28;20332;-59
2024/01/23 00:23:37;;;;;;;19.80;10.18;;;;;;;-1.12;100.00;99204.59;5098353;28;20122;-58
2024/01/23 00:26:03;;;;;;;20.85;9.40;;;;;;;-1.22;100.00;99196.63;5097840;28;20459;-59
2024/01/23 00:28:29;;;;;;;23.98;10.55;;;;;;;-1.20;100.00;99189.88;5098208;28;20134;-62
2024/01/23 00:30:56;;;;;;;17.27;8.18;;;;;;;-1.25;100.00;99184.53;5098044;28;20062;-60
2024/01/23 00:33:22;;;;;;;20.45;10.50;;;;;;;-1.19;100.00;99179.91;5097962;28;20142;-61
2024/01/23 00:35:47;;;;;;;13.25;8.10;;;;;;;-1.38;100.00;99184.44;5097963;28;20058;-60
2024/01/23 00:38:13;;;;;;;13.18;6.78;;;;;;;-1.29;100.00;99178.16;5097611;28;20100;-57
2024/01/23 00:40:39;;;;;;;18.48;8.90;;;;;;;-1.36;100.00;99163.44;5097911;28;20067;-60
2024/01/23 00:43:06;;;;;;;12.38;6.82;;;;;;;-0.88;100.00;99160.69;5097674;28;20048;-59
2024/01/23 00:45:32;;;;;;;18.15;8.00;;;;;;;-1.28;100.00;99133.22;5097935;28;20084;-61
2024/01/23 00:47:59;;;;;;;15.48;7.78;;;;;;;-1.20;100.00;99128.00;5097516;28;20052;-61
2024/01/23 00:50:26;;;;;;;18.65;10.43;;;;;;;-1.16;100.00;99100.53;5097397;28;20138;-58
2024/01/23 00:52:52;;;;;;;19.65;9.25;;;;;;;-1.23;100.00;99090.13;5097455;28;20124;-57
2024/01/23 00:55:18;;;;;;;12.55;6.57;;;;;;;-1.19;100.00;99085.78;5097597;28;20134;-61
2024/01/23 00:57:44;;;;;;;17.73;8.55;;;;;;;-1.11;100.00;99078.94;5097261;28;20088;-61
2024/01/23 01:00:11;;;;;;;21.63;9.38;;;;;;;-0.83;100.00;99077.22;5097438;28;20074;-60
2024/01/23 01:02:37;;;;;;;20.17;10.50;;;;;;;-0.95;100.00;99056.09;5097549;28;20163;-62
2024/01/23 01:05:04;;;;;;;15.30;7.85;;;;;;;-0.98;100.00;99014.44;5097399;28;20048;-60
2024/01/23 01:07:30;;;;;;;20.58;9.32;;;;;;;-1.03;100.00;98995.69;5097523;28;20098;-60
2024/01/23 01:09:56;;;;;;;20.73;9.45;;;;;;;-1.05;100.00;98975.53;5097242;28;20142;-61
2024/01/23 01:12:22;;;;;;;12.38;6.85;;;;;;;-1.05;100.00;98965.56;5097323;28;20143;-62
2024/01/23 01:14:48;;;;;;;20.20;9.48;;;;;;;-0.89;100.00;98946.50;5097061;28;20052;-62
2024/01/23 01:17:14;;;;;;;17.52;9.27;;;;;;;-1.07;100.00;98897.78;5096452;28;20079;-62
2024/01/23 01:19:40;;;;;;;21.48;9.65;;;;;;;-0.84;100.00;98882.59;5096931;28;20047;-61
2024/01/23 01:22:06;;;;;;;17.25;8.95;;;;;;;-0.90;100.00;98866.84;5097424;28;20314;-60
2024/01/23 01:24:32;;;;;;;17.50;8.80;;;;;;;-1.09;100.00;98846.19;5096935;28;20047;-61
2024/01/23 01:26:58;;;;;;;20.40;9.65;;;;;;;-0.90;100.00;98829.16;5097321;28;20496;-59
2024/01/23 01:29:24;;;;;;;20.98;9.80;;;;;;;-0.85;100.00;98802.97;5097096;28;20095;-60
2024/01/23 01:31:50;;;;;;;22.33;10.20;;;;;;;-0.85;100.00;98746.44;5096794;28;20056;-60
2024/01/23 01:34:16;;;;;;;28.52;8.73;;;;;;;-0.90;100.00;98705.38;5097081;28;20097;-59
2024/01/23 01:36:41;;;;;;;18.42;8.95;;;;;;;-0.64;100.00;98655.28;5096950;28;20076;-61
2024/01/23 01:39:11;;;;;;;20.05;10.15;;;;;;;-0.68;100.00;98599.69;5096804;28;20376;-62
2024/01/23 01:41:37;;;;;;;14.55;7.72;;;;;;;-0.91;100.00;98558.47;5096765;28;20051;-61
2024/01/23 01:44:03;;;;;;;16.83;7.85;;;;;;;-0.85;100.00;98511.53;5097009;28;20048;-62
2024/01/23 01:46:31;;;;;;;14.75;9.02;;;;;;;-0.78;100.00;98471.53;5096539;28;20134;-60
2024/01/23 01:48:57;;;;;;;14.82;6.93;;;;;;;-1.04;100.00;98430.97;5096876;28;20056;-60
2024/01/23 01:51:26;;;;;;;15.80;8.90;;;;;;;-0.81;100.00;98437.94;5096759;28;20056;-60
2024/01/23 01:53:52;;;;;;;20.95;10.25;;;;;;;-0.75;100.00;98412.47;5096985;28;20055;-62
2024/01/23 01:56:20;;;;;;;16.73;8.75;;;;;;;-0.83;100.00;98369.41;5096340;28;20142;-60
2024/01/23 01:58:46;;;;;;;19.25;10.68;;;;;;;-0.57;100.00;98359.50;5096667;28;20048;-60
2024/01/23 02:01:13;;;;;;;23.58;9.23;;;;;;;-0.71;100.00;98289.63;5096647;28;20048;-61
2024/01/23 02:03:39;;;;;;;15.15;7.15;;;;;;;-0.86;100.00;98282.00;5096342;28;20048;-60
2024/01/23 02:06:06;;;;;;;16.30;7.63;;;;;;;-0.88;100.00;98259.97;5096656;28;20044;-58
2024/01/23 02:08:34;;;;;;;14.30;6.38;;;;;;;-0.61;100.00;98225.84;5096430;28;20048;-61
2024/01/23 02:11:02;;;;;;;21.20;10.32;;;;;;;-0.39;100.00;98208.78;5096619;28;20064;-58
2024/01/23 02:13:29;;;;;;;22.45;8.10;;;;;;;-0.63;100.00;98191.19;5096133;28;20044;-60
2024/01/23 02:15:55;;;;;;;23.85;9.98;;;;;;;-0.54;100.00;98173.13;5096567;28;20048;-62
2024/01/23 02:18:21;;;;;;;20.90;8.68;;;;;;;-0.79;100.00;98141.63;5096140;28;20420;-60
2024/01/23 02:20:47;;;;;;;17.27;9.05;;;;;;;-0.80;100.00;98094.25;5096465;28;20056;-61
2024/01/23 02:23:13;;;;;;;16.23;7.63;;;;;;;-0.65;100.00;98118.03;5096131;28;20113;-61
2024/01/23 02:25:40;;;;;;;27.60;10.18;;;;;;;-0.58;100.00;98104.88;5096309;28;20063;-59
2024/01/23 02:28:07;;;;;;;20.08;8.18;;;;;;;-0.42;100.00;98112.47;5097818;28;20047;-62
2024/01/23 02:30:34;;;;;;;16.38;8.18;;;;;;;-0.55;100.00;98098.06;5099663;28;20306;-60
2024/01/23 02:33:00;;;;;;;15.65;9.85;;;;;;;-0.54;100.00;98116.59;5099910;28;20083;-61
2024/01/23 02:35:26;;;;;;;17.55;9.20;;;;;;;-0.67;100.00;98131.00;5099762;28;20066;-60
2024/01/23 02:37:54;;;;;;;16.58;8.30;;;;;;;-0.63;100.00;98144.63;5099877;28;20048;-60
2024/01/23 02:40:20;;;;;;;29.48;7.88;;;;;;;-0.78;100.00;98140.50;5099394;28;20337;-58
2024/01/23 02:42:47;;;;;;;17.38;9.48;;;;;;;-0.64;100.00;98188.78;5099755;28;20066;-59
2024/01/23 02:45:13;;;;;;;19.85;9.48;;;;;;;-0.45;100.00;98213.53;5099479;28;20060;-59
2024/01/23 02:47:39;;;;;;;23.33;10.60;;;;;;;-0.43;100.00;98211.31;5099891;28;20138;-61
2024/01/23 02:50:08;;;;;;;18.23;7.60;;;;;;;-0.65;100.00;98228.38;5099264;28;20580;-61
2024/01/23 02:52:33;;;;;;;24.00;9.52;;;;;;;-0.62;100.00;98294.28;5099720;28;20139;-57
2024/01/23 02:54:59;;;;;;;22.55;10.70;;;;;;;-0.58;100.00;98366.00;5099551;28;20151;-60
2024/01/23 02:57:26;;;;;;;18.48;9.10;;;;;;;-0.76;100.00;98443.19;5099457;28;20048;-59
2024/01/23 02:59:53;;;;;;;20.27;10.57;;;;;;;-0.68;100.00;98559.31;5099434;28;20142;-59
2024/01/23 03:02:19;;;;;;;23.63;11.95;;;;;;;-0.77;100.00;98613.88;5098791;28;20047;-61
2024/01/23 03:04:45;;;;;;;22.83;11.75;;;;;;;-0.78;100.00;98668.78;5098990;28;20134;-63
2024/01/23 03:07:11;;;;;;;22.08;9.88;;;;;;;-0.79;100.00;98679.88;5099210;28;20355;-62
2024/01/23 03:09:37;;;;;;;21.33;11.38;;;;;;;-0.95;100.00;98728.59;5099316;28;20143;-62
2024/01/23 03:12:14;;;;;;;27.38;12.55;;;;;;;-0.80;100.00;98807.44;5099022;28;20047;-59
2024/01/23 03:14:40;;;;;;;18.13;9.82;;;;;;;-1.09;100.00;98811.22;5099410;28;20056;-61
2024/01/23 03:17:06;;;;;;;15.23;7.90;;;;;;;-1.07;100.00;98867.41;5098913;28;20295;-60
2024/01/23 03:19:32;;;;;;;25.02;11.55;;;;;;;-0.89;100.00;98914.22;5099107;28;20426;-61
2024/01/23 03:21:58;;;;;;;16.92;8.52;;;;;;;-1.15;100.00;98933.44;5098780;28;20464;-58
2024/01/23 03:24:24;;;;;;;23.42;11.35;;;;;;;-1.07;100.00;98951.59;5098983;28;20087;-59
2024/01/23 03:26:50;;;;;;;22.33;9.90;;;;;;;-1.08;100.00;98966.16;5099027;28;20048;-56
2024/01/23 03:29:16;;;;;;;14.18;6.57;;;;;;;-1.15;100.00;98975.69;5098861;28;20051;-60
2024/01/23 03:31:42;;;;;;;18.17;9.55;;;;;;;-1.01;100.00;98993.47;5099068;28;20063;-60
2024/01/23 03:34:08;;;;;;;18.67;9.13;;;;;;;-0.92;100.00;99004.41;5098576;28;20048;-59
2024/01/23 03:36:34;;;;;;;25.27;11.38;;;;;;;-1.05;100.00;99008.63;5098907;28;20051;-62
2024/01/23 03:39:00;;;;;;;25.25;11.85;;;;;;;-1.07;100.00;99021.56;5098010;28;20058;-61
2024/01/23 03:41:26;;;;;;;30.98;11.75;;;;;;;-0.92;100.00;99043.97;5098715;28;20143;-62
2024/01/23 03:43:52;;;;;;;18.35;8.95;;;;;;;-1.19;100.00;99024.69;5098547;28;20393;-61
2024/01/23 03:46:18;;;;;;;27.35;11.80;;;;;;;-1.16;100.00;99042.16;5098850;28;20135;-60
2024/01/23 03:48:44;;;;;;;12.60;6.38;;;;;;;-1.27;100.00;99051.44;5098391;28;20087;-60
2024/01/23 03:51:10;;;;;;;22.80;11.63;;;;;;;-1.17;100.00;99078.19;5098561;28;20055;-60
2024/01/23 03:53:36;;;;;;;23.88;12.02;;;;;;;-1.17;100.00;99085.47;5098410;28;20485;-58
2024/01/23 03:56:02;;;;;;;24.38;12.05;;;;;;;-1.22;100.00;99103.28;5098498;28;20094;-60
2024/01/23 03:58:28;;;;;;;20.35;10.57;;;;;;;-1.22;100.00;99111.34;5098616;28;20139;-61
2024/01/23 04:00:57;;;;;;;21.50;9.90;;;;;;;-0.89;100.00;99107.97;5098259;28;20405;-61
2024/01/23 04:03:23;;;;;;;19.45;10.40;;;;;;;-0.88;100.00;99104.97;5098606;28;20048;-60
2024/01/23 04:05:49;;;;;;;25.75;11.57;;;;;;;-1.03;100.00;99110.59;5098106;28;20052;-61
2024/01/23 04:08:16;;;;;;;34.42;11.88;;;;;;;-1.04;100.00;99100.91;5098424;28;20058;-62
2024/01/23 04:10:41;;;;;;;30.27;11.80;;;;;;;-1.02;100.00;99112.19;5098101;28;20143;-62
2024/01/23 04:13:07;;;;;;;27.73;9.93;;;;;;;-1.15;100.00;99111.00;5098389;28;20048;-62
2024/01/23 04:15:33;;;;;;;22.30;10.52;;;;;;;-1.29;100.00;99115.47;5098030;28;20047;-61
2024/01/23 04:17:59;;;;;;;20.98;10.88;;;;;;;-1.10;100.00;99121.72;5098332;28;20043;-60
2024/01/23 04:20:25;;;;;;;22.02;11.73;;;;;;;-1.05;100.00;99113.56;5097946;28;20079;-61
2024/01/23 04:22:51;;;;;;;25.95;10.90;;;;;;;-1.17;100.00;99115.84;5098080;28;20139;-60
2024/01/23 04:25:18;;;;;;;21.30;10.48;;;;;;;-1.19;100.00;99116.16;5098172;28;20052;-59
2024/01/23 04:27:44;;;;;;;18.08;9.88;;;;;;;-1.27;100.00;99119.47;5097745;28;20134;-59
2024/01/23 04:30:10;;;;;;;19.73;8.77;;;;;;;-1.16;100.00;99124.75;5098113;28;20147;-60
2024/01/23 04:32:36;;;;;;;26.02;11.23;;;;;;;-1.16;100.00;99125.53;5097828;28;20424;-61
2024/01/23 04:35:03;;;;;;;29.83;12.73;;;;;;;-0.92;100.00;99120.13;5098105;28;20063;-62
2024/01/23 04:37:29;;;;;;;27.20;11.70;;;;;;;-0.96;100.00;99125.28;5097698;28;20062;-61
2024/01/23 04:39:55;;;;;;;17.08;8.75;;;;;;;-1.01;100.00;99130.72;5097929;28;20385;-61
2024/01/23 04:42:21;;;;;;;21.88;11.43;;;;;;;-0.71;100.00;99126.00;5097546;28;20043;-62
2024/01/23 04:44:47;;;;;;;19.90;9.43;;;;;;;-0.90;100.00;99131.41;5097846;28;20413;-60
2024/01/23 04:47:13;;;;;;;22.15;11.38;;;;;;;-0.73;100.00;99125.50;5097321;28;20048;-60
2024/01/23 04:49:39;;;;;;;21.13;10.60;;;;;;;-1.03;100.00;99130.22;5097392;28;20071;-59
2024/01/23 04:52:05;;;;;;;28.70;12.75;;;;;;;-0.86;100.00;99135.09;5097620;28;20131;-60
2024/01/23 04:54:31;;;;;;;17.67;9.35;;;;;;;-0.91;100.00;99131.69;5097443;28;20052;-62
2024/01/23 04:56:57;;;;;;;26.92;12.70;;;;;;;-0.63;100.00;99144.22;5097487;28;20086;-61
2024/01/23 04:59:24;;;;;;;23.60;11.68;;;;;;;-0.64;100.00;99139.09;5097357;28;20080;-61
2024/01/23 05:01:50;;;;;;;22.42;10.93;;;;;;;-0.40;100.00;99149.78;5097281;28;20152;-62
2024/01/23 05:04:15;;;;;;;22.63;11.55;;;;;;;-0.62;100.00;99132.34;5097116;28;20160;-60
2024/01/23 05:06:41;;;;;;;18.52;10.10;;;;;;;-0.91;100.00;99148.63;5097329;28;20055;-58
2024/01/23 05:09:07;;;;;;;20.95;8.57;;;;;;;-0.94;100.00;99151.88;5096837;28;20139;-57
2024/01/23 05:11:33;;;;;;;22.13;11.43;;;;;;;-0.58;100.00;99162.19;5097229;28;20047;-57
2024/01/23 05:13:59;;;;;;;24.20;13.25;;;;;;;-0.50;100.00;99159.63;5096821;28;20087;-60
2024/01/23 05:16:26;;;;;;;22.80;12.30;;;;;;;-0.50;100.00;99156.13;5097372;28;20071;-62
2024/01/23 05:18:52;;;;;;;17.58;8.65;;;;;;;-0.80;100.00;99152.78;5096807;28;20047;-55
2024/01/23 05:21:19;;;;;;;16.98;9.82;;;;;;;-0.59;100.00;99160.59;5096673;28;20094;-55
2024/01/23 05:23:45;;;;;;;22.55;10.50;;;;;;;-0.68;100.00;99167.72;5097007;28;20056;-60
2024/01/23 05:26:11;;;;;;;20.20;9.45;;;;;;;-0.81;100.00;99166.53;5096503;28;20052;-60
2024/01/23 05:28:37;;;;;;;26.00;13.50;;;;;;;-0.51;100.00;99163.41;5096795;28;20155;-61
2024/01/23 05:31:03;;;;;;;21.88;10.93;;;;;;;-0.84;100.00;99159.03;5096444;28;20051;-57
2024/01/23 05:33:29;;;;;;;21.20;10.65;;;;;;;-0.87;100.00;99163.09;5096715;28;20113;-55
2024/01/23 05:35:55;;;;;;;26.63;11.48;;;;;;;-0.46;100.00;99167.13;5096515;28;20082;-58
2024/01/23 05:38:21;;;;;;;30.15;13.43;;;;;;;-0.72;100.00;99179.06;5096713;28;20374;-56
2024/01/23 05:40:47;;;;;;;27.05;13.88;;;;;;;-0.40;100.00;99184.81;5095979;28;20091;-58
2024/01/23 05:43:14;;;;;;;31.83;12.30;;;;;;;-0.57;100.00;99188.81;5096703;28;20358;-57
2024/01/23 05:45:40;;;;;;;23.17;11.38;;;;;;;-0.80;100.00;99178.88;5096411;28;20047;-56
2024/01/23 05:48:06;;;;;;;31.83;13.35;;;;;;;-0.44;100.00;99183.78;5096811;28;20143;-59
2024/01/23 05:50:33;;;;;;;20.98;11.15;;;;;;;-0.74;100.00;99183.13;5096412;28;21111;-55
2024/01/23 05:52:59;;;;;;;25.95;12.68;;;;;;;-0.59;100.00;99192.91;5096123;28;20060;-56
2024/01/23 05:55:24;;;;;;;27.30;10.82;;;;;;;-0.73;100.00;99192.81;5096605;28;20093;-56
2024/01/23 05:57:50;;;;;;;26.98;13.30;;;;;;;-0.44;100.00;99186.47;5096065;28;20063;-61
2024/01/23 06:00:17;;;;;;;32.38;13.35;;;;;;;-0.40;100.00;99182.94;5096268;28;20139;-61
2024/01/23 06:02:43;;;;;;;26.77;12.52;;;;;;;-0.50;100.00;99191.97;5095587;28;20056;-55
2024/01/23 06:05:08;;;;;;;27.95;14.15;;;;;;;-0.43;100.00;99193.47;5096346;28;20075;-56
2024/01/23 06:07:40;;;;;;;38.22;17.83;;;;;;;-0.48;100.00;99189.75;5096151;28;20048;-56
2024/01/23 06:10:07;;;;;;;37.38;17.55;;;;;;;-0.34;100.00;99199.81;5096297;28;20056;-61
2024/01/23 06:12:36;;;;;;;27.80;14.57;;;;;;;-0.60;100.00;99192.09;5096071;28;20052;-55
2024/01/23 06:15:03;;;;;;;33.08;17.48;;;;;;;-0.33;100.00;99204.13;5096038;28;20131;-59
2024/01/23 06:17:29;;;;;;;43.83;18.15;;;;;;;-0.26;100.00;99213.44;5096235;28;20439;-59
2024/01/23 06:19:54;;;;;;;40.53;17.40;;;;;;;-0.37;100.00;99211.94;5096095;28;20135;-61
2024/01/23 06:22:20;;;;;;;32.20;19.38;;;;;;;-0.20;100.00;99213.34;5095957;28;20070;-64
2024/01/23 06:25:00;;;;;;;41.60;19.52;;;;;;;-0.50;100.00;99221.59;5095814;28;20143;-62
2024/01/23 06:27:26;;;;;;;42.83;19.95;;;;;;;0.01;100.00;99211.16;5095979;28;20048;-60
2024/01/23 06:29:52;;;;;;;33.55;16.08;;;;;;;-0.35;100.00;99214.38;5095865;28;20158;-58
2024/01/23 06:32:18;;;;;;;30.00;12.80;;;;;;;-0.14;100.00;99218.34;5096054;28;20412;-59
2024/01/23 06:34:44;;;;;;;31.52;16.38;;;;;;;-0.05;100.00;99226.59;5095716;28;20095;-61
2024/01/23 06:37:10;;;;;;;38.95;20.58;;;;;;;-0.19;100.00;99226.53;5096066;28;20056;-62
2024/01/23 06:39:36;;;;;;;50.78;23.23;;;;;;;0.07;100.00;99237.72;5095678;28;20147;-63
2024/01/23 06:42:03;;;;;;;44.30;20.58;;;;;;;-0.60;100.00;99242.44;5095949;28;20056;-58
2024/01/23 06:44:29;;;;;;;45.88;23.25;;;;;;;-0.32;100.00;99246.91;5095493;28;20066;-59
2024/01/23 06:46:55;;;;;;;51.28;26.48;;;;;;;-0.28;100.00;99264.09;5095563;28;20079;-61
2024/01/23 06:49:21;;;;;;;59.45;27.90;;;;;;;-0.43;100.00;99263.50;5095755;28;20134;-61
2024/01/23 06:51:47;;;;;;;67.82;31.92;;;;;;;0.10;100.00;99264.09;5095518;28;20098;-63
2024/01/23 06:54:13;;;;;;;46.50;24.63;;;;;;;0.10;100.00;99268.66;5095810;28;20138;-63
2024/01/23 06:56:39;;;;;;;49.75;23.13;;;;;;;-0.11;100.00;99266.28;5095483;28;20089;-58
2024/01/23 06:59:06;;;;;;;49.42;27.75;;;;;;;-0.17;100.00;99261.25;5095831;28;20044;-62
2024/01/23 07:01:32;;;;;;;50.70;22.92;;;;;;;-0.49;100.00;99265.47;5095264;28;20052;-55
2024/01/23 07:03:58;;;;;;;41.53;23.40;;;;;;;-0.28;100.00;99268.69;5095631;28;20093;-59
2024/01/23 07:06:24;;;;;;;51.05;25.10;;;;;;;0.28;100.00;99267.06;5095170;28;20140;-59
2024/01/23 07:08:50;;;;;;;49.97;27.58;;;;;;;0.59;100.00;99270.03;5095569;28;20080;-62
2024/01/23 07:11:16;;;;;;;35.40;19.23;;;;;;;0.02;100.00;99269.34;5095209;28;20139;-62
2024/01/23 07:13:42;;;;;;;42.25;22.02;;;;;;;0.10;100.00;99277.59;5095122;28;20148;-57
2024/01/23 07:16:08;;;;;;;54.45;24.13;;;;;;;0.49;100.00;99281.81;5098015;28;20062;-60
2024/01/23 07:18:34;;;;;;;48.50;25.55;;;;;;;0.17;100.00;99291.50;5098652;28;20048;-57
2024/01/23 07:21:00;;;;;;;47.80;22.95;;;;;;;0.60;100.00;99287.81;5098469;28;20048;-59
2024/01/23 07:23:26;;;;;;;40.10;21.67;;;;;;;0.37;100.00;99290.38;5098685;28;20055;-56
2024/01/23 07:25:52;;;;;;;40.40;18.52;;;;;;;0.56;100.00;99286.81;5098550;28;20134;-58
2024/01/23 07:28:18;;;;;;;40.15;18.10;;;;;;;0.41;100.00;99287.88;5098558;28;20055;-58
2024/01/23 07:30:44;;;;;;;35.53;19.42;;;;;;;0.56;100.00;99284.13;5098793;28;20150;-61
2024/01/23 07:33:10;;;;;;;42.92;21.77;;;;;;;0.28;100.00;99275.94;5098427;28;20139;-59
2024/01/23 07:35:36;;;;;;;45.22;21.23;;;;;;;0.49;100.00;99281.81;5098943;28;20134;-60
2024/01/23 07:38:02;;;;;;;49.88;22.98;;;;;;;0.40;100.00;99283.56;5098413;28;20421;-61
2024/01/23 07:40:28;;;;;;;40.85;18.98;;;;;;;0.42;100.00;99292.97;5098865;28;20362;-56
2024/01/23 07:42:54;;;;;;;63.53;22.70;;;;;;;0.38;100.00;99293.88;5098186;28;20226;-57
2024/01/23 07:45:20;;;;;;;67.10;31.60;;;;;;;0.75;100.00;99298.38;5098523;28;20106;-57
2024/01/23 07:47:47;;;;;;;59.95;28.58;;;;;;;0.52;100.00;99292.00;5098295;28;20152;-56
2024/01/23 07:50:13;;;;;;;51.63;26.35;;;;;;;0.86;100.00;99293.59;5098296;28;20462;-61
2024/01/23 07:52:39;;;;;;;61.92;29.23;;;;;;;1.04;100.00;99295.44;5098297;28;20047;-57
2024/01/23 07:55:05;;;;;;;67.40;32.30;;;;;;;1.08;100.00;99274.81;5098100;28;20105;-59
2024/01/23 07:57:31;;;;;;;58.67;32.17;;;;;;;1.30;100.00;99262.50;5098416;28;20127;-60
2024/01/23 07:59:57;;;;;;;62.60;32.80;;;;;;;1.16;100.00;99232.81;5098012;28;20077;-60
2024/01/23 08:02:25;;;;;;;77.07;37.45;;;;;;;1.40;100.00;99216.41;5098286;28;20420;-59
2024/01/23 08:04:52;;;;;;;60.10;32.03;;;;;;;1.47;100.00;99188.97;5097801;28;20070;-62
2024/01/23 08:07:19;;;;;;;51.10;27.70;;;;;;;1.01;100.00;99157.53;5098380;28;20059;-60
2024/01/23 08:09:45;;;;;;;61.13;30.30;;;;;;;1.12;100.00;99192.13;5097804;28;20109;-60
2024/01/23 08:12:10;;;;;;;73.78;32.05;;;;;;;0.88;100.00;99203.13;5098013;28;20109;-59
2024/01/23 08:14:36;;;;;;;62.95;31.40;;;;;;;0.93;100.00;99237.31;5097585;28;20450;-60
2024/01/23 08:17:03;;;;;;;75.88;36.08;;;;;;;0.97;100.00;99251.81;5097852;28;20142;-58
2024/01/23 08:19:28;;;;;;;58.65;30.73;;;;;;;1.08;100.00;99268.63;5097676;28;20064;-60
2024/01/23 08:21:54;;;;;;;58.65;30.90;;;;;;;1.20;100.00;99270.81;5097649;28;20064;-58
2024/01/23 08:24:21;;;;;;;58.45;28.25;;;;;;;1.34;100.00;99275.13;5097734;28;20044;-58
2024/01/23 08:26:52;;;;;;;59.33;29.80;;;;;;;1.23;100.00;99252.09;5097258;28;20079;-60
2024/01/23 08:29:18;;;;;;;34.33;17.73;;;;;;;0.42;100.00;99270.59;5097944;28;20055;-59
2024/01/23 08:31:44;;;;;;;34.53;20.15;;;;;;;0.89;100.00;99307.28;5097638;28;20320;-59
2024/01/23 08:34:09;;;;;;;38.47;19.50;;;;;;;1.03;100.00;99306.50;5097930;28;20409;-60
2024/01/23 08:36:35;;;;;;;38.08;19.85;;;;;;;1.28;100.00;99308.75;5097355;28;20176;-60
2024/01/23 08:39:01;;;;;;;56.10;28.90;;;;;;;1.20;100.00;99311.31;5097707;28;20097;-62
2024/01/23 08:41:28;;;;;;;44.10;25.70;;;;;;;0.65;100.00;99309.34;5097409;28;20055;-61
2024/01/23 08:43:54;;;;;;;45.13;25.50;;;;;;;0.46;100.00;99326.34;5097478;28;20062;-62
2024/01/23 08:46:21;;;;;;;39.03;19.80;;;;;;;0.55;100.00;99329.19;5097440;28;20410;-56
2024/01/23 08:48:47;;;;;;;41.15;17.33;;;;;;;0.66;100.00;99327.91;5097329;28;20114;-62
2024/01/23 08:51:13;;;;;;;37.92;18.42;;;;;;;0.97;100.00;99337.38;5097412;28;20155;-60
2024/01/23 08:53:39;;;;;;;38.25;17.50;;;;;;;1.17;100.00;99340.53;5097087;28;20063;-61
2024/01/23 08:56:05;;;;;;;30.45;15.60;;;;;;;1.95;100.00;99342.53;5097295;28;20048;-61
2024/01/23 08:58:32;;;;;;;24.25;12.98;;;;;;;1.51;100.00;99335.88;5096997;28;20306;-60
2024/01/23 09:00:58;;;;;;;33.85;14.50;;;;;;;1.63;100.00;99338.84;5097206;28;20055;-60
2024/01/23 09:03:24;;;;;;;31.00;13.27;;;;;;;0.90;100.00;99335.06;5096916;28;20135;-62
2024/01/23 09:05:50;;;;;;;32.30;14.88;;;;;;;1.30;100.00;99338.97;5097312;28;20385;-61
2024/01/23 09:08:16;;;;;;;23.95;13.00;;;;;;;1.64;100.00;99348.56;5096716;28;20052;-61
2024/01/23 09:10:42;;;;;;;29.13;13.95;;;;;;;1.63;100.00;99341.53;5097015;28;20189;-61
2024/01/23 09:13:08;;;;;;;27.45;13.50;;;;;;;1.93;100.00;99339.31;5097004;28;20143;-56
2024/01/23 09:15:36;;;;;;;23.75;13.90;;;;;;;1.97;100.00;99333.00;5097017;28;20056;-62
2024/01/23 09:18:02;;;;;;;28.10;14.07;;;;;;;1.77;100.00;99323.44;5097142;28;20139;-63
2024/01/23 09:20:30;;;;;;;28.60;14.27;;;;;;;2.01;100.00;99314.28;5096608;28;20044;-62
2024/01/23 09:22:56;;;;;;;26.20;13.82;;;;;;;1.92;100.00;99279.03;5097003;28;20075;-62
2024/01/23 09:25:22;;;;;;;30.40;15.50;;;;;;;1.85;100.00;99279.44;5096739;28;20451;-61
2024/01/23 09:27:48;;;;;;;39.65;17.95;;;;;;;1.52;100.00;99307.72;5096816;28;20047;-60
2024/01/23 09:30:15;;;;;;;54.47;18.55;;;;;;;1.34;100.00;99320.25;5096456;28;20059;-63
2024/01/23 09:32:41;;;;;;;46.30;21.10;;;;;;;1.96;100.00;99334.09;5096902;28;20381;-62
2024/01/23 09:35:11;;;;;;;40.45;17.98;;;;;;;1.65;100.00;99331.25;5096354;28;20100;-62
2024/01/23 09:37:38;;;;;;;37.45;15.35;;;;;;;1.90;100.00;99340.75;5095557;28;20048;-62
2024/01/23 09:40:06;;;;;;;43.35;15.10;;;;;;;1.85;100.00;99325.41;5096253;28;20332;-61
2024/01/23 09:42:35;;;;;;;29.48;13.63;;;;;;;1.31;100.00;99340.56;5096246;28;20056;-61
2024/01/23 09:45:04;;;;;;;35.15;14.75;;;;;;;1.64;100.00;99337.75;5096539;28;20230;-64
2024/01/23 09:47:30;;;;;;;40.30;14.50;;;;;;;1.67;100.00;99344.44;5096350;28;20109;-63
2024/01/23 09:49:57;;;;;;;38.95;17.40;;;;;;;1.77;100.00;99336.94;5096751;28;20303;-62
2024/01/23 09:52:23;;;;;;;34.80;16.25;;;;;;;1.69;100.00;99334.94;5096429;28;20397;-62
2024/01/23 09:54:49;;;;;;;39.90;16.85;;;;;;;2.08;100.00;99342.50;5096643;28;20060;-62
2024/01/23 09:57:16;;;;;;;39.05;15.40;;;;;;;1.87;100.00;99341.34;5096207;28;20436;-62
2024/01/23 09:59:44;;;;;;;50.45;16.45;;;;;;;2.05;100.00;99339.59;5096635;28;20419;-60
2024/01/23 10:02:10;;;;;;;33.72;14.43;;;;;;;1.63;100.00;99333.44;5095968;28;20055;-62
2024/01/23 10:04:37;;;;;;;41.75;15.18;;;;;;;1.34;100.00;99337.25;5096564;28;20105;-62
2024/01/23 10:07:06;;;;;;;35.95;15.25;;;;;;;1.59;100.00;99324.34;5095923;28;20392;-61
2024/01/23 10:09:33;;;;;;;41.30;17.08;;;;;;;1.51;100.00;99319.66;5096364;28;20056;-61
2024/01/23 10:11:58;;;;;;;39.20;16.30;;;;;;;2.02;100.00;99299.66;5096284;28;20048;-62
2024/01/23 10:14:25;;;;;;;54.53;18.25;;;;;;;1.58;100.00;99303.84;5096132;28;20143;-63
2024/01/23 10:16:51;;;;;;;40.83;16.08;;;;;;;1.80;100.00;99298.50;5096209;28;20052;-56
2024/01/23 10:19:17;;;;;;;44.50;16.25;;;;;;;1.95;100.00;99302.75;5096040;28;20144;-56
2024/01/23 10:21:43;;;;;;;39.15;14.88;;;;;;;2.21;100.00;99318.44;5096283;28;20142;-59
2024/01/23 10:24:10;;;;;;;43.28;15.35;;;;;;;2.16;100.00;99329.34;5095758;28;20044;-56
2024/01/23 10:26:36;;;;;;;41.58;15.70;;;;;;;2.24;100.00;99345.66;5096319;28;20396;-58
2024/01/23 10:29:02;;;;;;;38.78;15.00;;;;;;;2.26;100.00;99359.66;5095800;28;20147;-57
2024/01/23 10:31:28;;;;;;;47.78;18.08;;;;;;;2.20;100.00;99371.72;5096215;28;20113;-59
2024/01/23 10:33:54;;;;;;;46.13;17.17;;;;;;;2.06;100.00;99365.53;5095722;28;20051;-58
2024/01/23 10:36:21;;;;;;;52.17;16.58;;;;;;;2.03;100.00;99352.63;5095803;28;20048;-59
2024/01/23 10:38:50;;;;;;;53.67;16.58;;;;;;;1.87;100.00;99360.28;5095697;28;20434;-59
2024/01/23 10:41:18;;;;;;;45.50;16.60;;;;;;;1.66;100.00;99351.75;5095838;28;20060;-58
2024/01/23 10:43:46;;;;;;;51.42;18.27;;;;;;;1.69;100.00;99334.13;5095804;28;20052;-57
2024/01/23 10:46:13;;;;;;;52.28;17.80;;;;;;;1.60;100.00;99315.94;5095779;28;20139;-58
2024/01/23 10:48:39;;;;;;;46.75;17.38;;;;;;;1.87;100.00;99306.19;5096787;28;20428;-60
2024/01/23 10:51:14;;;;;;;49.60;17.73;;;;;;;2.17;100.00;99306.63;5099349;28;20174;-60
2024/01/23 10:53:53;;;;;;;41.53;17.08;;;;;;;2.07;100.00;99313.84;5099415;28;20076;-60
2024/01/23 10:56:23;;;;;;;54.90;15.98;;;;;;;1.70;100.00;99320.34;5098952;28;20496;-57
2024/01/23 10:58:58;;;;;;;51.13;17.98;;;;;;;1.96;100.00;99314.38;5098951;28;20134;-60
2024/01/23 11:01:25;;;;;;;44.28;15.88;;;;;;;1.93;100.00;99306.88;5099326;28;20048;-60
2024/01/23 11:03:51;;;;;;;51.53;18.30;;;;;;;1.99;100.00;99303.75;5098911;28;20138;-61
2024/01/23 11:06:23;;;;;;;49.83;20.70;;;;;;;2.19;100.00;99299.78;5099175;28;20321;-56
2024/01/23 11:08:53;;;;;;;56.17;19.17;;;;;;;2.11;100.00;99314.06;5098926;28;20413;-57
2024/01/23 11:11:32;;;;;;;50.80;18.83;;;;;;;2.12;100.00;99305.63;5099349;28;20464;-60